sensor_id;sensor_type;location;lat;lon;timestamp;pressure;altitude;pressure_sealevel;temperature;humidity
13314;BME280;6725;48.112;11.604;2023-02-19T00:02:21;95740.78;;;11.91;100.00
13314;BME280;6725;48.112;11.604;2023-02-19T00:04:46;95736.50;;;11.86;100.00
13314;BME280;6725;48.112;11.604;2023-02-19T00:07:11;95739.63;;;11.85;100.00
13314;BME280;6725;48.112;11.604;2023-02-19T00:09:37;95732.63;;;11.84;100.00
13314;BME280;6725;48.112;11.604;2023-02-19T00:12:02;95736.50;;;11.83;100.00
13314;BME280;6725;48.112;11.604;2023-02-19T00:14:28;95738.09;;;11.84;100.00
13314;BME280;6725;48.112;11.604;2023-02-19T00:16:53;95738.13;;;11.77;100.00
13314;BME280;6725;48.112;11.604;2023-02-19T00:19:19;95733.50;;;11.70;100.00
13314;BME280;6725;48.112;11.604;2023-02-19T00:21:46;95732.66;;;11.77;100.00
13314;BME280;6725;48.112;11.604;2023-02-19T00:24:12;95723.25;;;11.78;100.00
13314;BME280;6725;48.112;11.604;2023-02-19T00:26:39;95724.06;;;11.78;100.00
13314;BME280;6725;48.112;11.604;2023-02-19T00:29:05;95727.94;;;11.81;100.00
13314;BME280;6725;48.112;11.604;2023-02-19T00:31:32;95722.06;;;11.79;100.00
13314;BME280;6725;48.112;11.604;2023-02-19T00:34:00;95728.75;;;11.78;100.00
13314;BME280;6725;48.112;11.604;2023-02-19T00:36:27;95731.81;;;11.83;100.00
13314;BME280;6725;48.112;11.604;2023-02-19T00:38:53;95727.19;;;11.77;100.00
13314;BME280;6725;48.112;11.604;2023-02-19T00:41:20;95722.53;;;11.74;100.00
13314;BME280;6725;48.112;11.604;2023-02-19T00:44:00;95720.53;;;11.78;100.00
13314;BME280;6725;48.112;11.604;2023-02-19T00:46:28;95713.91;;;11.75;100.00
13314;BME280;6725;48.112;11.604;2023-02-19T00:48:54;95717.84;;;11.71;100.00
13314;BME280;6725;48.112;11.604;2023-02-19T00:51:21;95712.38;;;11.71;100.00
13314;BME280;6725;48.112;11.604;2023-02-19T00:53:47;95713.16;;;11.68;100.00
13314;BME280;6725;48.112;11.604;2023-02-19T00:56:13;95711.25;;;11.65;100.00
13314;BME280;6725;48.112;11.604;2023-02-19T00:58:39;95704.56;;;11.73;100.00
13314;BME280;6725;48.112;11.604;2023-02-19T01:01:05;95701.81;;;11.69;100.00
13314;BME280;6725;48.112;11.604;2023-02-19T01:03:34;95701.44;;;11.71;100.00
13314;BME280;6725;48.112;11.604;2023-02-19T01:06:01;95692.06;;;11.68;100.00
13314;BME280;6725;48.112;11.604;2023-02-19T01:08:28;95705.78;;;11.65;100.00
13314;BME280;6725;48.112;11.604;2023-02-19T01:10:55;95689.00;;;11.63;100.00
13314;BME280;6725;48.112;11.604;2023-02-19T01:13:20;95696.81;;;11.61;100.00
13314;BME280;6725;48.112;11.604;2023-02-19T01:15:46;95693.66;;;11.66;100.00
13314;BME280;6725;48.112;11.604;2023-02-19T01:18:11;95690.53;;;11.64;100.00
13314;BME280;6725;48.112;11.604;2023-02-19T01:20:41;95689.00;;;11.63;100.00
13314;BME280;6725;48.112;11.604;2023-02-19T01:23:08;95691.34;;;11.61;100.00
13314;BME280;6725;48.112;11.604;2023-02-19T01:25:40;95688.22;;;11.59;100.00
13314;BME280;6725;48.112;11.604;2023-02-19T01:28:05;95685.91;;;11.54;100.00
13314;BME280;6725;48.112;11.604;2023-02-19T01:30:36;95675.78;;;11.51;100.00
13314;BME280;6725;48.112;11.604;2023-02-19T01:33:05;95681.25;;;11.51;100.00
13314;BME280;6725;48.112;11.604;2023-02-19T01:35:31;95676.94;;;11.50;100.00
13314;BME280;6725;48.112;11.604;2023-02-19T01:37:57;95670.25;;;11.54;100.00
13314;BME280;6725;48.112;11.604;2023-02-19T01:40:22;95676.97;;;11.46;100.00
13314;BME280;6725;48.112;11.604;2023-02-19T01:42:48;95670.34;;;11.40;100.00
13314;BME280;6725;48.112;11.604;2023-02-19T01:45:20;95678.94;;;11.42;100.00
13314;BME280;6725;48.112;11.604;2023-02-19T01:47:50;95666.44;;;11.45;100.00
13314;BME280;6725;48.112;11.604;2023-02-19T01:50:18;95665.69;;;11.41;100.00
13314;BME280;6725;48.112;11.604;2023-02-19T01:52:43;95669.97;;;11.42;100.00
13314;BME280;6725;48.112;11.604;2023-02-19T01:55:10;95661.75;;;11.42;100.00
13314;BME280;6725;48.112;11.604;2023-02-19T01:57:40;95657.44;;;11.44;100.00
13314;BME280;6725;48.112;11.604;2023-02-19T02:00:11;95663.72;;;11.41;100.00
13314;BME280;6725;48.112;11.604;2023-02-19T02:02:38;95654.00;;;11.37;100.00
13314;BME280;6725;48.112;11.604;2023-02-19T02:05:12;95644.19;;;11.39;100.00
13314;BME280;6725;48.112;11.604;2023-02-19T02:07:40;95646.91;;;11.43;100.00
13314;BME280;6725;48.112;11.604;2023-02-19T02:10:24;95660.22;;;11.41;100.00
13314;BME280;6725;48.112;11.604;2023-02-19T02:12:52;95647.72;;;11.36;100.00
13314;BME280;6725;48.112;11.604;2023-02-19T02:15:21;95655.59;;;11.31;100.00
13314;BME280;6725;48.112;11.604;2023-02-19T02:18:19;95646.28;;;11.25;100.00
13314;BME280;6725;48.112;11.604;2023-02-19T02:24:10;95652.63;;;11.08;100.00
13314;BME280;6725;48.112;11.604;2023-02-19T02:32:29;95647.75;;;10.68;100.00
13314;BME280;6725;48.112;11.604;2023-02-19T02:35:00;95641.53;;;10.60;100.00
13314;BME280;6725;48.112;11.604;2023-02-19T02:37:32;95630.66;;;10.50;100.00
13314;BME280;6725;48.112;11.604;2023-02-19T02:40:01;95635.78;;;10.41;100.00
13314;BME280;6725;48.112;11.604;2023-02-19T02:42:27;95628.00;;;10.36;100.00
13314;BME280;6725;48.112;11.604;2023-02-19T02:44:56;95618.66;;;10.30;100.00
13314;BME280;6725;48.112;11.604;2023-02-19T02:47:52;95617.13;;;10.22;100.00
13314;BME280;6725;48.112;11.604;2023-02-19T02:50:33;95614.03;;;10.13;100.00
13314;BME280;6725;48.112;11.604;2023-02-19T02:53:03;95598.06;;;10.00;100.00
13314;BME280;6725;48.112;11.604;2023-02-19T02:55:50;95575.88;;;9.84;100.00
13314;BME280;6725;48.112;11.604;2023-02-19T02:58:19;95573.16;;;9.77;100.00
13314;BME280;6725;48.112;11.604;2023-02-19T03:00:51;95557.97;;;9.76;100.00
13314;BME280;6725;48.112;11.604;2023-02-19T03:03:38;95560.34;;;9.71;100.00
13314;BME280;6725;48.112;11.604;2023-02-19T03:06:08;95544.00;;;9.67;100.00
13314;BME280;6725;48.112;11.604;2023-02-19T03:11:18;95521.44;;;9.56;100.00
13314;BME280;6725;48.112;11.604;2023-02-19T03:14:10;95502.72;;;9.51;100.00
13314;BME280;6725;48.112;11.604;2023-02-19T03:16:59;95491.47;;;9.46;100.00
13314;BME280;6725;48.112;11.604;2023-02-19T03:19:49;95484.09;;;9.39;100.00
13314;BME280;6725;48.112;11.604;2023-02-19T03:22:20;95477.84;;;9.42;100.00
13314;BME280;6725;48.112;11.604;2023-02-19T03:25:15;95463.06;;;9.29;100.00
13314;BME280;6725;48.112;11.604;2023-02-19T03:28:03;95442.88;;;9.23;100.00
13314;BME280;6725;48.112;11.604;2023-02-19T03:30:35;95416.41;;;9.20;100.00
13314;BME280;6725;48.112;11.604;2023-02-19T03:33:08;95371.66;;;9.07;100.00
13314;BME280;6725;48.112;11.604;2023-02-19T03:35:40;95351.84;;;9.03;100.00
13314;BME280;6725;48.112;11.604;2023-02-19T03:43:51;95188.50;;;8.89;100.00
13314;BME280;6725;48.112;11.604;2023-02-19T03:46:41;95150.38;;;8.89;100.00
13314;BME280;6725;48.112;11.604;2023-02-19T03:49:37;95064.03;;;8.86;100.00
13314;BME280;6725;48.112;11.604;2023-02-19T03:52:20;95000.28;;;8.87;100.00
13314;BME280;6725;48.112;11.604;2023-02-19T03:54:55;94967.66;;;8.80;100.00
13314;BME280;6725;48.112;11.604;2023-02-19T04:00:03;94841.69;;;8.76;100.00
13314;BME280;6725;48.112;11.604;2023-02-19T04:05:31;94733.63;;;8.73;100.00
13314;BME280;6725;48.112;11.604;2023-02-19T04:08:01;94704.03;;;8.75;100.00
13314;BME280;6725;48.112;11.604;2023-02-19T04:10:29;94650.84;;;8.71;100.00
13314;BME280;6725;48.112;11.604;2023-02-19T04:13:00;94590.91;;;8.74;100.00
13314;BME280;6725;48.112;11.604;2023-02-19T04:15:30;94565.69;;;8.70;100.00
13314;BME280;6725;48.112;11.604;2023-02-19T04:17:59;94531.50;;;8.69;100.00
13314;BME280;6725;48.112;11.604;2023-02-19T04:20:28;94484.88;;;8.67;100.00
13314;BME280;6725;48.112;11.604;2023-02-19T04:22:56;94542.78;;;8.68;100.00
13314;BME280;6725;48.112;11.604;2023-02-19T04:25:22;94527.66;;;8.67;100.00
13314;BME280;6725;48.112;11.604;2023-02-19T04:27:50;94501.31;;;8.60;100.00
13314;BME280;6725;48.112;11.604;2023-02-19T04:30:16;94494.00;;;8.57;100.00
13314;BME280;6725;48.112;11.604;2023-02-19T04:32:41;94484.25;;;8.56;100.00
13314;BME280;6725;48.112;11.604;2023-02-19T04:35:07;94478.00;;;8.59;100.00
13314;BME280;6725;48.112;11.604;2023-02-19T04:37:32;94481.53;;;8.56;100.00
13314;BME280;6725;48.112;11.604;2023-02-19T04:39:57;94478.78;;;8.60;100.00
13314;BME280;6725;48.112;11.604;2023-02-19T04:42:23;94476.50;;;8.55;100.00
13314;BME280;6725;48.112;11.604;2023-02-19T04:44:48;94481.91;;;8.58;100.00
13314;BME280;6725;48.112;11.604;2023-02-19T04:47:13;94492.09;;;8.54;100.00
13314;BME280;6725;48.112;11.604;2023-02-19T04:49:42;94499.38;;;8.61;100.00
13314;BME280;6725;48.112;11.604;2023-02-19T04:52:08;94501.31;;;8.60;100.00
13314;BME280;6725;48.112;11.604;2023-02-19T04:54:33;94518.09;;;8.55;100.00
13314;BME280;6725;48.112;11.604;2023-02-19T04:56:58;94510.31;;;8.57;100.00
13314;BME280;6725;48.112;11.604;2023-02-19T04:59:24;94523.06;;;8.60;100.00
13314;BME280;6725;48.112;11.604;2023-02-19T05:01:49;94527.34;;;8.61;100.00
13314;BME280;6725;48.112;11.604;2023-02-19T05:04:14;94523.78;;;8.64;100.00
13314;BME280;6725;48.112;11.604;2023-02-19T05:06:40;94526.88;;;8.66;100.00
13314;BME280;6725;48.112;11.604;2023-02-19T05:09:05;94546.75;;;8.63;100.00
13314;BME280;6725;48.112;11.604;2023-02-19T05:11:30;94549.78;;;8.69;100.00
13314;BME280;6725;48.112;11.604;2023-02-19T05:13:56;94568.00;;;8.72;100.00
13314;BME280;6725;48.112;11.604;2023-02-19T05:16:21;94571.03;;;8.77;100.00
13314;BME280;6725;48.112;11.604;2023-02-19T05:18:47;94578.13;;;8.71;100.00
13314;BME280;6725;48.112;11.604;2023-02-19T05:21:12;94586.59;;;8.77;100.00
13314;BME280;6725;48.112;11.604;2023-02-19T05:23:38;94599.44;;;8.76;100.00
13314;BME280;6725;48.112;11.604;2023-02-19T05:26:12;94605.22;;;8.78;100.00
13314;BME280;6725;48.112;11.604;2023-02-19T05:28:37;94625.84;;;8.79;100.00
13314;BME280;6725;48.112;11.604;2023-02-19T05:31:07;94641.34;;;8.82;100.00
13314;BME280;6725;48.112;11.604;2023-02-19T05:33:33;94653.41;;;8.81;100.00
13314;BME280;6725;48.112;11.604;2023-02-19T05:36:04;94664.69;;;8.83;100.00
13314;BME280;6725;48.112;11.604;2023-02-19T05:38:29;94684.53;;;8.80;100.00
13314;BME280;6725;48.112;11.604;2023-02-19T05:40:55;94707.84;;;8.85;100.00
13314;BME280;6725;48.112;11.604;2023-02-19T05:43:20;94728.00;;;8.87;100.00
13314;BME280;6725;48.112;11.604;2023-02-19T05:45:45;94748.97;;;8.90;100.00
13314;BME280;6725;48.112;11.604;2023-02-19T05:48:11;94764.56;;;8.86;100.00
13314;BME280;6725;48.112;11.604;2023-02-19T05:50:37;94775.03;;;8.91;100.00
13314;BME280;6725;48.112;11.604;2023-02-19T05:53:03;94801.84;;;8.93;100.00
13314;BME280;6725;48.112;11.604;2023-02-19T05:55:33;94825.16;;;8.94;100.00
13314;BME280;6725;48.112;11.604;2023-02-19T05:57:59;94844.63;;;8.92;100.00
13314;BME280;6725;48.112;11.604;2023-02-19T06:00:25;94867.94;;;8.93;100.00
13314;BME280;6725;48.112;11.604;2023-02-19T06:02:52;94867.88;;;9.00;100.00
13314;BME280;6725;48.112;11.604;2023-02-19T06:05:17;94895.84;;;9.04;100.00
13314;BME280;6725;48.112;11.604;2023-02-19T06:07:42;94905.56;;;9.05;100.00
13314;BME280;6725;48.112;11.604;2023-02-19T06:10:10;94924.72;;;8.98;100.00
13314;BME280;6725;48.112;11.604;2023-02-19T06:12:36;94934.81;;;8.98;100.00
13314;BME280;6725;48.112;11.604;2023-02-19T06:15:02;94953.03;;;9.04;100.00
13314;BME280;6725;48.112;11.604;2023-02-19T06:17:28;94963.56;;;9.02;100.00
13314;BME280;6725;48.112;11.604;2023-02-19T06:19:54;94976.00;;;9.03;100.00
13314;BME280;6725;48.112;11.604;2023-02-19T06:22:19;95005.53;;;9.08;100.00
13314;BME280;6725;48.112;11.604;2023-02-19T06:24:46;95022.69;;;9.05;100.00
13314;BME280;6725;48.112;11.604;2023-02-19T06:27:12;95014.84;;;9.11;100.00
13314;BME280;6725;48.112;11.604;2023-02-19T06:29:37;95067.75;;;9.10;100.00
13314;BME280;6725;48.112;11.604;2023-02-19T06:32:03;95072.84;;;9.08;100.00
13314;BME280;6725;48.112;11.604;2023-02-19T06:34:29;95084.09;;;9.10;100.00
13314;BME280;6725;48.112;11.604;2023-02-19T06:36:55;95091.53;;;9.09;100.00
13314;BME280;6725;48.112;11.604;2023-02-19T06:39:21;95104.34;;;9.09;100.00
13314;BME280;6725;48.112;11.604;2023-02-19T06:41:46;95110.16;;;9.14;100.00
13314;BME280;6725;48.112;11.604;2023-02-19T06:44:11;95120.25;;;9.17;100.00
13314;BME280;6725;48.112;11.604;2023-02-19T06:46:37;95126.09;;;9.19;100.00
13314;BME280;6725;48.112;11.604;2023-02-19T06:49:03;95136.97;;;9.19;100.00
13314;BME280;6725;48.112;11.604;2023-02-19T06:51:29;95150.16;;;9.24;100.00
13314;BME280;6725;48.112;11.604;2023-02-19T06:53:57;95164.94;;;9.27;100.00
13314;BME280;6725;48.112;11.604;2023-02-19T06:56:28;95178.91;;;9.32;100.00
13314;BME280;6725;48.112;11.604;2023-02-19T06:58:56;95180.44;;;9.33;100.00
13314;BME280;6725;48.112;11.604;2023-02-19T07:01:24;95194.41;;;9.42;100.00
13314;BME280;6725;48.112;11.604;2023-02-19T07:03:50;95202.91;;;9.51;100.00
13314;BME280;6725;48.112;11.604;2023-02-19T07:06:16;95227.03;;;9.53;100.00
13314;BME280;6725;48.112;11.604;2023-02-19T07:08:42;95230.84;;;9.62;100.00
13314;BME280;6725;48.112;11.604;2023-02-19T07:11:07;95253.38;;;9.73;100.00
13314;BME280;6725;48.112;11.604;2023-02-19T07:13:33;95276.75;;;9.74;100.00
13314;BME280;6725;48.112;11.604;2023-02-19T07:15:59;95279.03;;;9.79;100.00
13314;BME280;6725;48.112;11.604;2023-02-19T07:18:25;95304.03;;;9.74;100.00
13314;BME280;6725;48.112;11.604;2023-02-19T07:20:50;95314.13;;;9.74;100.00
13314;BME280;6725;48.112;11.604;2023-02-19T07:23:16;95317.66;;;9.74;100.00
13314;BME280;6725;48.112;11.604;2023-02-19T07:25:42;95303.22;;;9.74;100.00
13314;BME280;6725;48.112;11.604;2023-02-19T07:28:08;95312.63;;;9.66;100.00
13314;BME280;6725;48.112;11.604;2023-02-19T07:30:33;95293.94;;;9.64;100.00
13314;BME280;6725;48.112;11.604;2023-02-19T07:32:58;95281.84;;;9.69;100.00
13314;BME280;6725;48.112;11.604;2023-02-19T07:35:24;95283.00;;;9.68;100.00
13314;BME280;6725;48.112;11.604;2023-02-19T07:37:49;95290.38;;;9.74;100.00
13314;BME280;6725;48.112;11.604;2023-02-19T07:40:14;95286.03;;;9.84;100.00
13314;BME280;6725;48.112;11.604;2023-02-19T07:42:40;95296.84;;;9.94;100.00
13314;BME280;6725;48.112;11.604;2023-02-19T07:45:06;95304.25;;;9.97;100.00
13314;BME280;6725;48.112;11.604;2023-02-19T07:47:31;95316.25;;;10.03;100.00
13314;BME280;6725;48.112;11.604;2023-02-19T07:49:56;95324.81;;;10.13;100.00
13314;BME280;6725;48.112;11.604;2023-02-19T07:52:22;95342.66;;;10.21;100.00
13314;BME280;6725;48.112;11.604;2023-02-19T07:54:47;95361.38;;;10.26;100.00
13314;BME280;6725;48.112;11.604;2023-02-19T07:57:13;95384.00;;;10.23;100.00
13314;BME280;6725;48.112;11.604;2023-02-19T07:59:38;95392.22;;;10.16;100.00
13314;BME280;6725;48.112;11.604;2023-02-19T08:02:12;95423.75;;;10.24;100.00
13314;BME280;6725;48.112;11.604;2023-02-19T08:04:58;95419.84;;;10.25;100.00
13314;BME280;6725;48.112;11.604;2023-02-19T08:07:23;95414.38;;;10.25;100.00
13314;BME280;6725;48.112;11.604;2023-02-19T08:09:48;95432.72;;;10.24;100.00
13314;BME280;6725;48.112;11.604;2023-02-19T08:12:34;95447.56;;;10.20;100.00
13314;BME280;6725;48.112;11.604;2023-02-19T08:15:18;95442.50;;;10.14;100.00
13314;BME280;6725;48.112;11.604;2023-02-19T08:17:43;95438.63;;;10.16;100.00
13314;BME280;6725;48.112;11.604;2023-02-19T08:20:09;95436.19;;;10.25;100.00
13314;BME280;6725;48.112;11.604;2023-02-19T08:22:34;95445.22;;;10.14;100.00
13314;BME280;6725;48.112;11.604;2023-02-19T08:24:59;95462.03;;;10.09;100.00
13314;BME280;6725;48.112;11.604;2023-02-19T08:27:25;95455.75;;;10.20;100.00
13314;BME280;6725;48.112;11.604;2023-02-19T08:29:50;95458.81;;;10.22;100.00
13314;BME280;6725;48.112;11.604;2023-02-19T08:32:15;95459.59;;;10.26;100.00
13314;BME280;6725;48.112;11.604;2023-02-19T08:34:41;95464.25;;;10.29;100.00
13314;BME280;6725;48.112;11.604;2023-02-19T08:37:06;95463.44;;;10.32;100.00
13314;BME280;6725;48.112;11.604;2023-02-19T08:39:31;95458.69;;;10.43;100.00
13314;BME280;6725;48.112;11.604;2023-02-19T08:41:57;95444.75;;;10.34;100.00
13314;BME280;6725;48.112;11.604;2023-02-19T08:44:22;95448.25;;;10.31;100.00
13314;BME280;6725;48.112;11.604;2023-02-19T08:46:47;95457.16;;;10.38;100.00
13314;BME280;6725;48.112;11.604;2023-02-19T08:49:13;95439.06;;;10.62;100.00
13314;BME280;6725;48.112;11.604;2023-02-19T08:51:40;95476.59;;;10.51;100.00
13314;BME280;6725;48.112;11.604;2023-02-19T08:54:05;95504.63;;;10.55;100.00
13314;BME280;6725;48.112;11.604;2023-02-19T08:56:30;95506.63;;;10.51;100.00
13314;BME280;6725;48.112;11.604;2023-02-19T08:58:56;95508.59;;;10.47;100.00
13314;BME280;6725;48.112;11.604;2023-02-19T09:01:21;95514.84;;;10.47;100.00
13314;BME280;6725;48.112;11.604;2023-02-19T09:03:47;95520.38;;;10.33;100.00
13314;BME280;6725;48.112;11.604;2023-02-19T09:06:16;95518.41;;;10.41;100.00
13314;BME280;6725;48.112;11.604;2023-02-19T09:08:42;95529.69;;;10.43;100.00
13314;BME280;6725;48.112;11.604;2023-02-19T09:11:07;95528.88;;;10.46;100.00
13314;BME280;6725;48.112;11.604;2023-02-19T09:13:33;95520.75;;;10.39;100.00
13314;BME280;6725;48.112;11.604;2023-02-19T09:15:58;95518.06;;;10.28;100.00
13314;BME280;6725;48.112;11.604;2023-02-19T09:18:24;95488.34;;;10.44;100.00
13314;BME280;6725;48.112;11.604;2023-02-19T09:20:50;95497.84;;;10.80;100.00
13314;BME280;6725;48.112;11.604;2023-02-19T09:23:15;95509.44;;;10.95;100.00
13314;BME280;6725;48.112;11.604;2023-02-19T09:25:40;95536.28;;;11.07;100.00
13314;BME280;6725;48.112;11.604;2023-02-19T09:28:06;95576.75;;;11.26;100.00
13314;BME280;6725;48.112;11.604;2023-02-19T09:30:31;95595.88;;;11.26;100.00
13314;BME280;6725;48.112;11.604;2023-02-19T09:32:57;95614.41;;;11.01;100.00
13314;BME280;6725;48.112;11.604;2023-02-19T09:35:22;95622.06;;;11.20;100.00
13314;BME280;6725;48.112;11.604;2023-02-19T09:37:47;95644.59;;;11.38;100.00
13314;BME280;6725;48.112;11.604;2023-02-19T09:40:13;95659.13;;;11.28;100.00
13314;BME280;6725;48.112;11.604;2023-02-19T09:42:40;95658.81;;;12.14;100.00
13314;BME280;6725;48.112;11.604;2023-02-19T09:45:09;95705.00;;;12.86;100.00
13314;BME280;6725;48.112;11.604;2023-02-19T09:47:39;95737.31;;;13.35;100.00
13314;BME280;6725;48.112;11.604;2023-02-19T09:50:07;95774.63;;;12.92;100.00
13314;BME280;6725;48.112;11.604;2023-02-19T09:55:28;95791.22;;;11.83;100.00
13314;BME280;6725;48.112;11.604;2023-02-19T09:57:49;95807.91;;;11.34;100.00
13314;BME280;6725;48.112;11.604;2023-02-19T10:00:25;95792.38;;;11.13;100.00
13314;BME280;6725;48.112;11.604;2023-02-19T10:03:02;95793.53;;;11.16;100.00
13314;BME280;6725;48.112;11.604;2023-02-19T10:05:28;95803.25;;;11.27;100.00
13314;BME280;6725;48.112;11.604;2023-02-19T10:07:54;95791.56;;;11.23;100.00
13314;BME280;6725;48.112;11.604;2023-02-19T10:10:35;95788.88;;;11.06;100.00
13314;BME280;6725;48.112;11.604;2023-02-19T10:13:34;95800.19;;;11.08;100.00
13314;BME280;6725;48.112;11.604;2023-02-19T10:16:02;95803.22;;;11.34;100.00
13314;BME280;6725;48.112;11.604;2023-02-19T10:18:35;95807.72;;;11.76;100.00
13314;BME280;6725;48.112;11.604;2023-02-19T10:21:02;95816.81;;;12.17;100.00
13314;BME280;6725;48.112;11.604;2023-02-19T10:23:27;95833.19;;;12.24;100.00
13314;BME280;6725;48.112;11.604;2023-02-19T10:25:55;95832.22;;;12.48;100.00
13314;BME280;6725;48.112;11.604;2023-02-19T10:28:27;95849.09;;;12.87;100.00
13314;BME280;6725;48.112;11.604;2023-02-19T10:30:55;95852.56;;;12.47;100.00
13314;BME280;6725;48.112;11.604;2023-02-19T10:33:21;95839.09;;;13.07;100.00
13314;BME280;6725;48.112;11.604;2023-02-19T10:36:01;95860.19;;;13.47;100.00
13314;BME280;6725;48.112;11.604;2023-02-19T10:38:38;95859.38;;;13.54;100.00
13314;BME280;6725;48.112;11.604;2023-02-19T10:41:10;95859.06;;;14.05;100.00
13314;BME280;6725;48.112;11.604;2023-02-19T10:43:40;95861.25;;;14.93;100.00
13314;BME280;6725;48.112;11.604;2023-02-19T10:46:15;95858.44;;;15.58;100.00
13314;BME280;6725;48.112;11.604;2023-02-19T10:48:46;95863.75;;;15.26;100.00
13314;BME280;6725;48.112;11.604;2023-02-19T10:51:14;95866.56;;;15.46;100.00
13314;BME280;6725;48.112;11.604;2023-02-19T10:53:50;95871.28;;;15.84;100.00
13314;BME280;6725;48.112;11.604;2023-02-19T10:56:27;95854.72;;;15.88;100.00
13314;BME280;6725;48.112;11.604;2023-02-19T11:01:38;95851.91;;;16.07;100.00
13314;BME280;6725;48.112;11.604;2023-02-19T11:04:17;95847.16;;;15.72;100.00
13314;BME280;6725;48.112;11.604;2023-02-19T11:06:43;95858.09;;;15.37;100.00
13314;BME280;6725;48.112;11.604;2023-02-19T11:09:35;95871.72;;;14.52;100.00
13314;BME280;6725;48.112;11.604;2023-02-19T11:12:02;95854.72;;;14.07;100.00
13314;BME280;6725;48.112;11.604;2023-02-19T11:14:31;95858.50;;;13.60;100.00
13314;BME280;6725;48.112;11.604;2023-02-19T11:16:59;95862.88;;;13.54;100.00
13314;BME280;6725;48.112;11.604;2023-02-19T11:19:39;95856.75;;;13.06;100.00
13314;BME280;6725;48.112;11.604;2023-02-19T11:24:51;95876.00;;;12.99;100.00
13314;BME280;6725;48.112;11.604;2023-02-19T11:27:18;95872.25;;;12.79;100.00
13314;BME280;6725;48.112;11.604;2023-02-19T11:29:45;95871.19;;;12.69;100.00
13314;BME280;6725;48.112;11.604;2023-02-19T11:34:46;95875.88;;;12.65;100.00
13314;BME280;6725;48.112;11.604;2023-02-19T11:37:13;95878.25;;;12.63;100.00
13314;BME280;6725;48.112;11.604;2023-02-19T11:39:41;95880.53;;;12.72;100.00
13314;BME280;6725;48.112;11.604;2023-02-19T12:04:06;95894.59;;;12.23;100.00
13314;BME280;6725;48.112;11.604;2023-02-19T12:09:29;95873.31;;;11.83;100.00
13314;BME280;6725;48.112;11.604;2023-02-19T12:28:33;95881.09;;;12.53;100.00
13314;BME280;6725;48.112;11.604;2023-02-19T12:32:03;95890.91;;;12.47;100.00
13314;BME280;6725;48.112;11.604;2023-02-19T12:34:12;95887.97;;;12.75;100.00
13314;BME280;6725;48.112;11.604;2023-02-19T12:39:44;95900.63;;;12.58;100.00
13314;BME280;6725;48.112;11.604;2023-02-19T12:45:04;95907.16;;;12.71;100.00
13314;BME280;6725;48.112;11.604;2023-02-19T12:47:35;95927.38;;;12.88;100.00
13314;BME280;6725;48.112;11.604;2023-02-19T12:52:40;95933.28;;;12.28;100.00
13314;BME280;6725;48.112;11.604;2023-02-19T12:55:36;95943.72;;;11.82;100.00
13314;BME280;6725;48.112;11.604;2023-02-19T12:58:04;95936.38;;;11.55;100.00
13314;BME280;6725;48.112;11.604;2023-02-19T13:00:46;95946.13;;;11.49;100.00
13314;BME280;6725;48.112;11.604;2023-02-19T13:03:35;95929.00;;;11.31;100.00
13314;BME280;6725;48.112;11.604;2023-02-19T13:06:15;95938.41;;;11.09;100.00
13314;BME280;6725;48.112;11.604;2023-02-19T13:11:51;95938.31;;;11.58;100.00
13314;BME280;6725;48.112;11.604;2023-02-19T13:14:27;95939.09;;;11.69;100.00
13314;BME280;6725;48.112;11.604;2023-02-19T13:16:59;95924.63;;;11.68;100.00
13314;BME280;6725;48.112;11.604;2023-02-19T13:19:27;95945.34;;;11.62;100.00
13314;BME280;6725;48.112;11.604;2023-02-19T13:22:02;95928.13;;;11.69;100.00
13314;BME280;6725;48.112;11.604;2023-02-19T13:24:49;95949.25;;;11.58;100.00
13314;BME280;6725;48.112;11.604;2023-02-19T13:27:55;95925.78;;;11.74;100.00
13314;BME280;6725;48.112;11.604;2023-02-19T13:30:30;95935.44;;;11.93;100.00
13314;BME280;6725;48.112;11.604;2023-02-19T13:33:17;95936.53;;;12.13;100.00
13314;BME280;6725;48.112;11.604;2023-02-19T13:38:49;95918.63;;;11.98;100.00
13314;BME280;6725;48.112;11.604;2023-02-19T13:41:27;95903.75;;;11.99;100.00
13314;BME280;6725;48.112;11.604;2023-02-19T13:43:57;95917.84;;;11.94;100.00
13314;BME280;6725;48.112;11.604;2023-02-19T13:46:24;95908.88;;;11.93;100.00
13314;BME280;6725;48.112;11.604;2023-02-19T13:51:48;95916.38;;;11.72;100.00
13314;BME280;6725;48.112;11.604;2023-02-19T13:54:32;95918.00;;;11.52;100.00
13314;BME280;6725;48.112;11.604;2023-02-19T13:59:47;95936.00;;;11.32;100.00
13314;BME280;6725;48.112;11.604;2023-02-19T14:09:51;95911.09;;;10.88;100.00
13314;BME280;6725;48.112;11.604;2023-02-19T14:12:21;95932.94;;;10.95;100.00
13314;BME280;6725;48.112;11.604;2023-02-19T14:14:55;95934.91;;;10.94;100.00
13314;BME280;6725;48.112;11.604;2023-02-19T14:17:42;95938.41;;;10.95;100.00
13314;BME280;6725;48.112;11.604;2023-02-19T14:28:20;95933.00;;;10.74;100.00
13314;BME280;6725;48.112;11.604;2023-02-19T14:30:51;95933.38;;;10.72;100.00
13314;BME280;6725;48.112;11.604;2023-02-19T14:33:38;95943.53;;;10.68;100.00
13314;BME280;6725;48.112;11.604;2023-02-19T14:36:33;95958.72;;;10.62;100.00
13314;BME280;6725;48.112;11.604;2023-02-19T14:39:01;95950.13;;;10.60;100.00
13314;BME280;6725;48.112;11.604;2023-02-19T14:41:30;95947.81;;;10.62;100.00
13314;BME280;6725;48.112;11.604;2023-02-19T14:43:58;95943.91;;;10.53;100.00
13314;BME280;6725;48.112;11.604;2023-02-19T14:46:35;95945.84;;;10.59;100.00
13314;BME280;6725;48.112;11.604;2023-02-19T14:50:06;95956.78;;;10.63;100.00
13314;BME280;6725;48.112;11.604;2023-02-19T14:52:23;95953.25;;;10.55;100.00
13314;BME280;6725;48.112;11.604;2023-02-19T14:54:57;95947.38;;;10.43;100.00
13314;BME280;6725;48.112;11.604;2023-02-19T14:57:34;95956.78;;;10.56;100.00
13314;BME280;6725;48.112;11.604;2023-02-19T15:02:44;95964.53;;;10.40;100.00